메인 페이지
METAR-TAF:

METAR-TAF

공항 :

Flying Cloud Airport

미니애폴리스 / Eden Prairie, 미네소타, 미국

위도: 44-49-56N, 경도: 093-28-13W, 고도: 287m

현재 날씨관측

예보는 40분 전, 13:53시(UTC)에 발표되었습니다.
7kt, 순간 최대 풍속 14kt
온도 16°C
습도 63%
기압 1009 hPa
시정: 16.1km
맑음

METAR: KFCM 251353Z 26007G14KT 10SM CLR 16/09 A2981 RMK AO2 SLP094 T01560089

시각: 09:33 (14:33 UTC)


TAF: 누락

4,000개 이상의 공항 관측 자료 및 예보 (METAR 및 TAF 보고).

지도상에서 검색 가능한 기상관측소가 노란 점과 빨간 점으로 표시되어 있습니다.

기상관측소 명을 보려면 표시 위로 마우스를 이동하세요.

날씨 관측과 예보를 보려면 클릭하세요.

지도 변경 : 확대하려면 엑스 표시가 있는 녹색 버튼, 축소하려면 빼기 표시가 있는 녹색 버튼, 다음 페이지의 지도를 보려면 녹색 화살표를 클릭하세요.


METAR-TAF: